Main page
METAR-TAF:

METAR-TAF

Airports :

Norwich Airport

Norwich, England

latitude: 52-38N, longitude: 001-18E, elevation: 14 m

Current weather observation

The report was made 34 minutes ago, at 20:50 UTC
Wind 5 kt from the East, varying between Northeast and East/Southeast
Temperature 9°C
Humidity 93%
Pressure 1022 hPa
Visibility: 0450 m
Overcast at a height of 100 ft
fog

METAR: EGSH 202050Z 08005KT 050V110 0450 R09/0900 FG OVC001 09/08 Q1022 BECMG 0300

Time: 22:24 (21:24 UTC)

Forecast

The report was made 1 hour and 30 minutes ago, at 19:54 UTC
Forecast valid from 20 at 21 UTC to 20 at 24 UTC
Wind 5 kt from the East
Visibility: 3500 m
Overcast at a height of 300 ft
mist
Becoming
from 20 at 21 UTC to 20 at 24 UTC
Visibility: 0300 m
Overcast at a height lower than 100 ft
fog

TAF: EGSH 201954Z 2021/2024 08005KT 3500 BR OVC003 BECMG 2021/2024 0300 FG OVC000

Weather observations and forecasts of more than 4000 airports (METAR and TAF reports).

The available stations are represented by yellow and red dots on the map.

Hover mouse over dot to see the name of the station.

Then click to see weather observations and forecasts.

To change the map : click on the green buttons with a black cross to zoom in, on the green button with a dash to zoom out, or on the green arrows for adjacent maps.


METAR-TAF: